Time;durP1;ratioP1;P1;durP2;ratioP2;P2;SDS_P1;SDS_P2;PMS_P1;PMS_P2;Temp;Humidity;BMP_temperature;BMP_pressure;BME280_temperature;BME280_humidity;BME280_pressure;Samples;Min_cycle;Max_cycle;Signal;HPM_P1;HPM_P2
2023/10/02 00:01:06;;;;;;;27.15;13.50;;;19.80;99.80;;;;;;4267103;27;20053;-57
2023/10/02 00:03:09;;;;;;;26.85;14.00;;;19.80;99.90;;;;;;4266698;27;20053;-57
2023/10/02 00:05:40;;;;;;;24.67;14.60;;;19.80;99.90;;;;;;4267182;27;20403;-57
2023/10/02 00:07:34;;;;;;;25.15;13.63;;;19.80;99.90;;;;;;4266918;27;20137;-57
2023/10/02 00:09:41;;;;;;;24.80;13.40;;;19.80;99.90;;;;;;4267216;27;20422;-57
2023/10/02 00:11:45;;;;;;;26.75;14.40;;;19.80;99.90;;;;;;4266914;27;20046;-56
2023/10/02 00:13:50;;;;;;;22.52;12.90;;;19.70;99.90;;;;;;4267009;27;20057;-59
2023/10/02 00:16:11;;;;;;;29.17;14.38;;;19.80;99.90;;;;;;4266647;27;20053;-60
2023/10/02 00:18:16;;;;;;;26.48;14.48;;;19.70;99.90;;;;;;4266467;27;20057;-60
2023/10/02 00:20:26;;;;;;;25.65;14.15;;;19.70;99.90;;;;;;4267056;27;20079;-60
2023/10/02 00:22:34;;;;;;;26.73;13.82;;;19.60;99.90;;;;;;4266728;27;20063;-59
2023/10/02 00:24:39;;;;;;;27.77;14.20;;;19.70;99.90;;;;;;4267028;27;20053;-59
2023/10/02 00:26:42;;;;;;;25.25;13.73;;;19.70;99.90;;;;;;4266918;27;20261;-59
2023/10/02 00:28:45;;;;;;;27.55;14.48;;;19.60;99.90;;;;;;4267023;27;20433;-59
2023/10/02 00:30:48;;;;;;;25.25;13.65;;;19.60;99.90;;;;;;4266791;27;20118;-59
2023/10/02 00:32:52;;;;;;;21.88;13.20;;;19.60;99.90;;;;;;4266450;27;20043;-58
2023/10/02 00:34:55;;;;;;;25.60;14.38;;;19.60;99.90;;;;;;4266582;27;20074;-59
2023/10/02 00:37:05;;;;;;;20.65;11.73;;;19.60;99.90;;;;;;4266761;27;20046;-59
2023/10/02 00:39:25;;;;;;;25.88;13.70;;;19.60;99.90;;;;;;4267012;27;20548;-60
2023/10/02 00:41:28;;;;;;;23.35;12.50;;;19.60;99.90;;;;;;4248725;27;20414;-59
2023/10/02 00:43:33;;;;;;;25.40;14.18;;;19.50;99.90;;;;;;4266301;27;20058;-59
2023/10/02 00:45:38;;;;;;;24.33;13.15;;;19.50;99.90;;;;;;4266251;27;20042;-59
2023/10/02 00:47:50;;;;;;;27.33;13.45;;;19.50;99.90;;;;;;4266581;27;20043;-59
2023/10/02 00:50:06;;;;;;;25.65;14.18;;;19.50;99.90;;;;;;4266528;27;20039;-57
2023/10/02 00:52:09;;;;;;;21.55;13.25;;;19.50;99.90;;;;;;4266102;27;20500;-59
2023/10/02 00:54:23;;;;;;;25.00;14.70;;;19.50;99.90;;;;;;4266539;27;20053;-58
2023/10/02 00:56:28;;;;;;;27.08;14.85;;;19.50;99.90;;;;;;4266116;27;20046;-58
2023/10/02 00:58:31;;;;;;;;;;;19.50;99.90;;;;;;4267036;27;20046;-59
2023/10/02 01:00:42;;;;;;;24.50;13.25;;;19.50;99.90;;;;;;4266093;27;19919;-59
2023/10/02 01:02:45;;;;;;;24.52;13.55;;;19.40;99.90;;;;;;4265988;27;20270;-58
2023/10/02 01:04:49;;;;;;;26.63;14.02;;;19.40;99.90;;;;;;4266289;27;20437;-59
2023/10/02 01:07:11;;;;;;;27.75;13.93;;;19.40;99.90;;;;;;4266036;27;20483;-59
2023/10/02 01:09:18;;;;;;;26.50;13.48;;;19.50;99.90;;;;;;4266172;27;20398;-59
2023/10/02 01:11:20;;;;;;;25.45;13.57;;;19.50;99.90;;;;;;4266244;27;20039;-59
2023/10/02 01:13:27;;;;;;;25.33;14.82;;;19.50;99.90;;;;;;4266029;27;20046;-59
2023/10/02 01:15:29;;;;;;;29.77;14.93;;;19.50;99.90;;;;;;4265786;27;20039;-59
2023/10/02 01:17:39;;;;;;;26.67;14.38;;;19.50;99.90;;;;;;4266039;27;20042;-59
2023/10/02 01:19:57;;;;;;;23.33;12.88;;;19.50;99.90;;;;;;4266113;27;20039;-60
2023/10/02 01:22:02;;;;;;;27.17;13.98;;;19.50;99.90;;;;;;4266071;27;20210;-58
2023/10/02 01:24:09;;;;;;;24.92;13.13;;;19.50;99.90;;;;;;4266260;27;20086;-58
2023/10/02 01:26:15;;;;;;;23.27;13.13;;;19.50;99.90;;;;;;4266369;27;20050;-60
2023/10/02 01:28:25;;;;;;;26.75;14.30;;;19.50;99.90;;;;;;4266274;27;20091;-60
2023/10/02 01:30:27;;;;;;;22.08;11.63;;;19.50;99.90;;;;;;4266280;27;20385;-59
2023/10/02 01:32:30;;;;;;;23.77;13.48;;;19.50;99.90;;;;;;4266861;27;20107;-59
2023/10/02 01:34:39;;;;;;;23.00;13.43;;;19.50;99.90;;;;;;4265815;27;20046;-59
2023/10/02 01:36:42;;;;;;;25.85;14.52;;;19.40;99.90;;;;;;4265698;27;20038;-59
2023/10/02 01:38:46;;;;;;;30.42;14.93;;;19.40;99.90;;;;;;4265667;27;20074;-58
2023/10/02 01:41:02;;;;;;;24.75;13.15;;;19.40;99.90;;;;;;4265840;27;20046;-58
2023/10/02 01:43:13;;;;;;;27.23;14.02;;;19.40;99.90;;;;;;4266333;27;20070;-60
2023/10/02 01:45:21;;;;;;;24.33;12.82;;;19.30;99.90;;;;;;4266552;27;20061;-59
2023/10/02 01:47:24;;;;;;;24.27;13.43;;;19.30;99.90;;;;;;4266588;27;20042;-59
2023/10/02 01:49:27;;;;;;;29.08;14.52;;;19.30;99.90;;;;;;4265763;27;20142;-60
2023/10/02 01:51:31;;;;;;;28.25;14.43;;;19.20;99.90;;;;;;4266006;27;20064;-58
2023/10/02 01:53:33;;;;;;;28.38;14.48;;;19.20;99.90;;;;;;4246955;27;20117;-59
2023/10/02 01:55:41;;;;;;;27.80;14.45;;;19.10;99.90;;;;;;4265564;27;20082;-60
2023/10/02 01:57:44;;;;;;;23.55;13.75;;;19.10;99.90;;;;;;4265189;27;20088;-59
2023/10/02 01:59:46;;;;;;;26.40;14.05;;;19.00;99.90;;;;;;4265040;27;20453;-60
2023/10/02 02:01:55;;;;;;;22.98;12.93;;;19.10;99.90;;;;;;4265396;27;20050;-59
2023/10/02 02:03:59;;;;;;;27.92;14.85;;;19.00;99.90;;;;;;4265292;27;20121;-59
2023/10/02 02:06:09;;;;;;;22.90;13.45;;;19.00;99.90;;;;;;4265248;27;20073;-58
2023/10/02 02:08:22;;;;;;;24.90;14.02;;;19.00;99.90;;;;;;4264903;27;20130;-60
2023/10/02 02:10:27;;;;;;;28.63;14.20;;;19.00;99.90;;;;;;4265174;27;20038;-59
2023/10/02 02:12:44;;;;;;;;;;;18.90;99.90;;;;;;4265808;27;20053;-59
2023/10/02 02:14:51;;;;;;;29.85;15.55;;;18.90;99.90;;;;;;4264797;27;19944;-59
2023/10/02 02:16:55;;;;;;;24.67;14.07;;;18.80;99.90;;;;;;4264860;27;20468;-59
2023/10/02 02:18:58;;;;;;;29.45;14.80;;;18.90;99.90;;;;;;4265085;27;20039;-57
2023/10/02 02:21:02;;;;;;;28.83;14.27;;;18.90;99.90;;;;;;4264680;27;20042;-61
2023/10/02 02:23:07;;;;;;;23.33;12.90;;;18.90;99.90;;;;;;4265297;27;20147;-59
2023/10/02 02:25:09;;;;;;;26.70;14.30;;;18.90;99.90;;;;;;4265224;27;20051;-59
2023/10/02 02:27:12;;;;;;;26.20;13.98;;;18.80;99.90;;;;;;4264890;27;20034;-59
2023/10/02 02:29:23;;;;;;;27.73;15.23;;;18.90;99.90;;;;;;4265311;27;20074;-56
2023/10/02 02:31:31;;;;;;;26.55;14.30;;;18.90;99.90;;;;;;4265028;27;20414;-57
2023/10/02 02:33:38;;;;;;;28.27;15.07;;;18.90;99.90;;;;;;4265176;27;20086;-57
2023/10/02 02:35:41;;;;;;;27.75;15.60;;;18.80;99.90;;;;;;4265035;27;20039;-57
2023/10/02 02:37:43;;;;;;;24.02;13.05;;;18.90;99.90;;;;;;4267135;27;20053;-57
2023/10/02 02:39:46;;;;;;;24.65;13.65;;;18.80;99.90;;;;;;4267216;27;20087;-60
2023/10/02 02:42:08;;;;;;;23.65;14.00;;;18.80;99.90;;;;;;4267298;27;20046;-63
2023/10/02 02:44:39;;;;;;;26.42;13.48;;;18.80;99.90;;;;;;4266393;27;20042;-57
2023/10/02 02:46:53;;;;;;;23.48;12.95;;;18.80;99.90;;;;;;4265776;27;20089;-58
2023/10/02 02:48:56;;;;;;;26.50;13.95;;;18.80;99.90;;;;;;4246671;27;20080;-57
2023/10/02 02:51:14;;;;;;;27.17;13.45;;;18.80;99.90;;;;;;4264481;27;20138;-57
2023/10/02 02:53:17;;;;;;;22.30;13.07;;;18.70;99.90;;;;;;4264760;27;20445;-56
2023/10/02 02:55:22;;;;;;;29.35;14.93;;;18.70;99.90;;;;;;4264701;27;20128;-56
2023/10/02 02:57:25;;;;;;;23.23;13.30;;;18.70;99.90;;;;;;4264453;27;20050;-57
2023/10/02 02:59:28;;;;;;;22.60;13.55;;;18.70;99.90;;;;;;4264626;27;20066;-57
2023/10/02 03:01:30;;;;;;;30.42;15.30;;;18.70;99.90;;;;;;4264495;27;20049;-56
2023/10/02 03:03:34;;;;;;;24.83;12.68;;;18.70;99.90;;;;;;4264570;27;20123;-57
2023/10/02 03:05:41;;;;;;;26.13;13.95;;;18.70;99.90;;;;;;4264545;27;20437;-56
2023/10/02 03:07:44;;;;;;;27.85;14.45;;;18.70;99.90;;;;;;4247133;27;20078;-56
2023/10/02 03:09:47;;;;;;;27.95;15.68;;;18.70;99.90;;;;;;4264746;27;20053;-56
2023/10/02 03:11:50;;;;;;;28.33;14.43;;;18.70;99.90;;;;;;4264080;27;20053;-56
2023/10/02 03:13:53;;;;;;;27.38;14.15;;;18.60;99.90;;;;;;4246091;28;20152;-62
2023/10/02 03:16:04;;;;;;;26.25;13.48;;;18.70;99.90;;;;;;4264646;27;20046;-56
2023/10/02 03:18:22;;;;;;;22.40;13.30;;;18.70;99.90;;;;;;4264297;27;20049;-57
2023/10/02 03:20:26;;;;;;;24.50;13.20;;;18.60;99.90;;;;;;4264691;27;20047;-55
2023/10/02 03:22:33;;;;;;;24.45;13.70;;;18.60;99.90;;;;;;4264469;27;20039;-56
2023/10/02 03:24:36;;;;;;;28.35;15.48;;;18.60;99.90;;;;;;4264297;27;20094;-56
2023/10/02 03:26:38;;;;;;;27.02;13.35;;;18.60;99.90;;;;;;4264150;27;20407;-55
2023/10/02 03:28:45;;;;;;;31.20;16.05;;;18.60;99.90;;;;;;4264426;27;20054;-56
2023/10/02 03:30:47;;;;;;;25.88;15.05;;;18.60;99.90;;;;;;4264395;27;20381;-55
2023/10/02 03:32:55;;;;;;;30.80;14.55;;;18.50;99.90;;;;;;4264313;27;20038;-57
2023/10/02 03:35:02;;;;;;;28.92;15.20;;;18.50;99.90;;;;;;4267709;27;20050;-56
2023/10/02 03:39:23;;;;;;;25.88;14.35;;;18.40;99.90;;;;;;4267712;27;20099;-56
2023/10/02 03:41:44;;;;;;;28.95;15.02;;;18.40;99.90;;;;;;4267197;27;20043;-57
2023/10/02 03:43:48;;;;;;;27.70;14.68;;;18.40;99.90;;;;;;4267416;27;20047;-57
2023/10/02 03:45:51;;;;;;;27.95;14.35;;;18.40;99.90;;;;;;4267450;27;20092;-56
2023/10/02 03:48:02;;;;;;;28.48;14.35;;;18.40;99.90;;;;;;4267771;27;20047;-57
2023/10/02 03:50:12;;;;;;;27.95;14.20;;;18.30;99.90;;;;;;4269366;27;20484;-59
2023/10/02 03:52:17;;;;;;;28.33;15.30;;;18.30;99.90;;;;;;4265915;27;20122;-58
2023/10/02 03:54:22;;;;;;;28.73;14.23;;;18.30;99.90;;;;;;4268994;27;20049;-60
2023/10/02 03:56:36;;;;;;;;;;;18.30;99.90;;;;;;4269747;27;20533;-58
2023/10/02 03:58:38;;;;;;;28.00;14.65;;;18.30;99.90;;;;;;4268677;27;19919;-57
2023/10/02 04:00:44;;;;;;;31.52;15.00;;;18.20;99.90;;;;;;4269269;27;20051;-58
2023/10/02 04:02:47;;;;;;;26.85;14.68;;;18.20;99.90;;;;;;4268653;27;20053;-58
2023/10/02 04:04:50;;;;;;;31.83;15.50;;;18.20;99.90;;;;;;4268941;27;20043;-60
2023/10/02 04:06:53;;;;;;;25.55;14.55;;;18.20;99.90;;;;;;4269269;27;20047;-59
2023/10/02 04:09:08;;;;;;;24.15;13.25;;;18.20;99.90;;;;;;4268182;27;20125;-57
2023/10/02 04:11:12;;;;;;;25.75;13.73;;;18.20;99.90;;;;;;4267121;27;20043;-57
2023/10/02 04:13:14;;;;;;;28.00;14.88;;;18.20;99.90;;;;;;4267404;27;20051;-57
2023/10/02 04:15:16;;;;;;;26.58;14.20;;;18.20;99.90;;;;;;4266755;27;20480;-56
2023/10/02 04:19:23;;;;;;;30.08;14.60;;;18.20;99.90;;;;;;4266884;27;20038;-57
2023/10/02 04:21:26;;;;;;;;;;;18.20;99.90;;;;;;4267630;27;20047;-56
2023/10/02 04:23:28;;;;;;;26.17;13.77;;;18.10;99.90;;;;;;4266295;27;19925;-55
2023/10/02 04:25:35;;;;;;;25.85;13.68;;;18.10;99.90;;;;;;4267039;27;20075;-56
2023/10/02 04:30:19;;;;;;;27.33;14.48;;;18.10;99.90;;;;;;4266950;27;20038;-59
2023/10/02 04:32:12;;;;;;;;;;;18.10;99.90;;;;;;4267318;27;20051;-57
2023/10/02 04:34:15;;;;;;;30.27;14.98;;;18.00;99.90;;;;;;4248366;27;19919;-57
2023/10/02 04:36:28;;;;;;;24.52;13.93;;;18.00;99.90;;;;;;4266857;27;20107;-57
2023/10/02 04:38:49;;;;;;;32.33;15.77;;;18.00;99.90;;;;;;4266515;27;20125;-57
2023/10/02 04:41:03;;;;;;;29.98;14.48;;;17.90;99.90;;;;;;4266720;27;20043;-61
2023/10/02 04:43:25;;;;;;;32.83;15.75;;;17.90;99.90;;;;;;4266909;27;20062;-57
2023/10/02 04:45:36;;;;;;;27.95;15.13;;;17.90;99.90;;;;;;4266835;27;20122;-58
2023/10/02 04:47:40;;;;;;;30.63;15.30;;;17.90;99.90;;;;;;4266688;27;20141;-58
2023/10/02 04:50:34;;;;;;;29.67;14.57;;;17.90;99.90;;;;;;4267007;27;20433;-56
2023/10/02 04:52:07;;;;;;;30.05;15.10;;;17.90;99.90;;;;;;4266910;27;20523;-58
2023/10/02 04:54:11;;;;;;;30.70;15.07;;;17.90;99.90;;;;;;4267904;27;20067;-58
2023/10/02 04:58:27;;;;;;;29.88;15.45;;;17.90;99.90;;;;;;4266685;27;20073;-58
2023/10/02 05:00:32;;;;;;;30.45;15.48;;;18.00;99.90;;;;;;4266494;27;20041;-57
2023/10/02 05:02:39;;;;;;;31.27;15.68;;;18.00;99.90;;;;;;4266341;27;20197;-57
2023/10/02 05:04:42;;;;;;;31.13;14.57;;;18.00;99.90;;;;;;4266624;27;20042;-57
2023/10/02 05:06:52;;;;;;;31.98;16.42;;;18.00;99.90;;;;;;4267539;27;20102;-59
2023/10/02 05:13:09;;;;;;;26.10;14.60;;;18.00;99.90;;;;;;4266450;27;20046;-57
2023/10/02 05:15:20;;;;;;;24.88;14.68;;;18.00;99.90;;;;;;4266086;27;20047;-62
2023/10/02 05:17:46;;;;;;;34.33;17.65;;;18.00;99.90;;;;;;4266083;27;20042;-56
2023/10/02 05:20:03;;;;;;;32.22;16.65;;;18.00;99.90;;;;;;4266083;27;20061;-57
2023/10/02 05:22:07;;;;;;;27.38;14.60;;;18.00;99.90;;;;;;4265588;27;20043;-57
2023/10/02 05:24:13;;;;;;;36.88;17.95;;;18.00;99.90;;;;;;4265735;27;20043;-56
2023/10/02 05:26:31;;;;;;;32.40;15.60;;;18.00;99.90;;;;;;4265856;27;20043;-56
2023/10/02 05:28:44;;;;;;;37.25;17.40;;;18.00;99.90;;;;;;4265784;27;20045;-56
2023/10/02 05:30:46;;;;;;;33.95;17.10;;;18.00;99.90;;;;;;4266275;27;20130;-57
2023/10/02 05:32:51;;;;;;;32.95;16.50;;;18.00;99.90;;;;;;4265777;27;20050;-56
2023/10/02 05:35:27;;;;;;;29.55;15.18;;;18.00;99.90;;;;;;4265908;27;20141;-57
2023/10/02 05:37:51;;;;;;;27.92;15.63;;;18.00;99.90;;;;;;4264147;27;20051;-56
2023/10/02 05:39:50;;;;;;;32.95;16.20;;;18.00;99.90;;;;;;4265434;27;20430;-57
2023/10/02 05:41:56;;;;;;;33.40;16.45;;;18.00;99.90;;;;;;4265426;27;20042;-57
2023/10/02 05:44:01;;;;;;;28.20;15.18;;;17.90;99.90;;;;;;4265530;27;20050;-56
2023/10/02 05:46:06;;;;;;;30.67;15.27;;;18.00;99.90;;;;;;4265762;27;20038;-57
2023/10/02 05:48:27;;;;;;;29.20;16.27;;;17.90;99.90;;;;;;4265458;27;20050;-56
2023/10/02 05:50:33;;;;;;;34.28;16.83;;;17.90;99.90;;;;;;4265142;27;20125;-57
2023/10/02 05:52:35;;;;;;;35.55;17.65;;;17.90;99.90;;;;;;4265733;27;20043;-57
2023/10/02 05:54:37;;;;;;;37.15;18.15;;;17.90;99.90;;;;;;4265612;27;20130;-57
2023/10/02 05:56:40;;;;;;;36.13;17.23;;;17.90;99.90;;;;;;4264743;27;20051;-61
2023/10/02 05:58:43;;;;;;;37.78;17.58;;;17.90;99.90;;;;;;4266134;27;20406;-59
2023/10/02 06:00:51;;;;;;;33.72;17.48;;;17.90;99.90;;;;;;4267526;27;20043;-58
2023/10/02 06:03:00;;;;;;;31.45;16.65;;;18.00;99.90;;;;;;4267808;27;20476;-61
2023/10/02 06:05:07;;;;;;;34.97;17.25;;;17.90;99.90;;;;;;4266996;27;20049;-59
2023/10/02 06:07:11;;;;;;;30.30;16.58;;;17.90;99.90;;;;;;4266607;27;20381;-60
2023/10/02 06:09:14;;;;;;;34.55;16.48;;;17.90;99.90;;;;;;4246881;27;20134;-57
2023/10/02 06:11:26;;;;;;;33.03;16.92;;;17.90;99.90;;;;;;4265402;27;20072;-57
2023/10/02 06:13:37;;;;;;;34.08;17.50;;;17.90;99.90;;;;;;4265533;27;20420;-57
2023/10/02 06:15:58;;;;;;;37.55;16.90;;;18.00;99.90;;;;;;4248232;27;20051;-58
2023/10/02 06:18:02;;;;;;;32.05;17.15;;;17.90;99.90;;;;;;4262495;27;20485;-58
2023/10/02 06:20:17;;;;;;;32.22;14.98;;;18.00;99.90;;;;;;4264611;27;20078;-57
2023/10/02 06:22:20;;;;;;;;;;;18.00;99.90;;;;;;4265584;27;20050;-57
2023/10/02 06:24:27;;;;;;;32.67;16.35;;;17.90;99.90;;;;;;4264889;27;19998;-57
2023/10/02 06:26:30;;;;;;;40.08;19.67;;;17.90;99.90;;;;;;4265201;27;20046;-57
2023/10/02 06:28:33;;;;;;;38.28;18.48;;;17.90;99.90;;;;;;4265032;27;20156;-57
2023/10/02 06:30:35;;;;;;;36.13;17.85;;;17.90;99.90;;;;;;4264946;27;20051;-57
2023/10/02 06:32:52;;;;;;;31.55;16.42;;;18.00;99.90;;;;;;4265223;27;20038;-57
2023/10/02 06:35:00;;;;;;;34.33;18.20;;;18.00;99.90;;;;;;4264693;27;20045;-57
2023/10/02 06:37:11;;;;;;;39.35;18.58;;;18.00;99.90;;;;;;4264909;27;20130;-57
2023/10/02 06:39:17;;;;;;;35.22;17.45;;;18.00;99.90;;;;;;4264651;27;20099;-57
2023/10/02 06:41:19;;;;;;;38.85;19.17;;;18.10;99.90;;;;;;4265000;27;20103;-57
2023/10/02 06:43:32;;;;;;;33.88;17.15;;;18.10;99.90;;;;;;4265032;27;20584;-57
2023/10/02 06:45:34;;;;;;;35.45;18.00;;;18.10;99.90;;;;;;4264838;27;20227;-58
2023/10/02 06:47:36;;;;;;;34.35;17.52;;;18.10;99.90;;;;;;4264904;27;20055;-57
2023/10/02 06:49:40;;;;;;;34.00;18.30;;;18.10;99.90;;;;;;4264251;27;20042;-58
2023/10/02 06:51:49;;;;;;;38.42;18.17;;;18.10;99.90;;;;;;4264753;27;20123;-57
2023/10/02 06:54:07;;;;;;;40.20;19.20;;;18.10;99.90;;;;;;4264967;27;20103;-58
2023/10/02 06:56:11;;;;;;;42.42;19.33;;;18.20;99.90;;;;;;4264728;27;20117;-58
2023/10/02 06:58:14;;;;;;;39.65;19.77;;;18.20;99.90;;;;;;4264417;27;20047;-57
2023/10/02 07:00:19;;;;;;;36.38;19.10;;;18.20;99.90;;;;;;4264749;27;20050;-57
2023/10/02 07:02:23;;;;;;;42.87;19.13;;;18.30;99.90;;;;;;4264642;27;20039;-57
2023/10/02 07:04:30;;;;;;;37.33;18.27;;;18.30;99.90;;;;;;4264462;27;20524;-57
2023/10/02 07:06:34;;;;;;;45.53;19.85;;;18.30;99.90;;;;;;4264900;27;20046;-60
2023/10/02 07:08:39;;;;;;;40.42;20.25;;;18.40;99.90;;;;;;4267759;27;20473;-57
2023/10/02 07:10:42;;;;;;;45.35;19.95;;;18.40;99.90;;;;;;4249968;27;20043;-57
2023/10/02 07:12:44;;;;;;;41.80;20.95;;;18.50;99.90;;;;;;4268361;27;20046;-57
2023/10/02 07:14:47;;;;;;;41.78;19.48;;;18.60;99.90;;;;;;4267880;27;20093;-58
2023/10/02 07:16:49;;;;;;;44.70;19.48;;;18.70;99.90;;;;;;4267788;27;20113;-60
2023/10/02 07:18:53;;;;;;;37.97;20.00;;;18.80;99.90;;;;;;4267801;27;20480;-59
2023/10/02 07:20:56;;;;;;;52.08;20.38;;;18.90;99.90;;;;;;4268033;27;20456;-59
2023/10/02 07:23:09;;;;;;;44.10;21.02;;;19.00;99.90;;;;;;4267970;27;20039;-63
2023/10/02 07:25:24;;;;;;;40.88;20.50;;;19.00;99.90;;;;;;4267901;27;20166;-58
2023/10/02 07:27:27;;;;;;;38.35;18.30;;;19.00;99.90;;;;;;4268564;27;20057;-58
2023/10/02 07:29:38;;;;;;;42.13;19.50;;;19.20;99.90;;;;;;4267993;27;20043;-56
2023/10/02 07:31:44;;;;;;;41.70;19.38;;;19.30;99.90;;;;;;4267495;27;20043;-56
2023/10/02 07:33:47;;;;;;;44.35;19.95;;;19.30;99.90;;;;;;4267986;27;20499;-60
2023/10/02 07:35:56;;;;;;;40.15;20.15;;;19.30;99.90;;;;;;4267729;27;20110;-60
2023/10/02 07:37:58;;;;;;;40.70;19.75;;;19.30;99.90;;;;;;4267542;27;20047;-59
2023/10/02 07:40:02;;;;;;;39.42;19.75;;;19.40;99.90;;;;;;4267825;27;20458;-59
2023/10/02 07:42:09;;;;;;;41.97;20.30;;;19.50;99.90;;;;;;4267768;27;20047;-60
2023/10/02 07:44:12;;;;;;;41.47;19.70;;;19.40;99.90;;;;;;4249198;27;20194;-60
2023/10/02 07:46:15;;;;;;;39.80;19.83;;;19.40;99.90;;;;;;4248990;27;20397;-60
2023/10/02 07:48:19;;;;;;;44.65;21.35;;;19.40;99.80;;;;;;4267615;27;20125;-59
2023/10/02 07:50:33;;;;;;;41.10;20.17;;;19.40;99.90;;;;;;4267731;27;20042;-60
2023/10/02 07:52:40;;;;;;;43.80;20.70;;;19.60;99.90;;;;;;4267298;27;20357;-60
2023/10/02 07:54:45;;;;;;;44.63;20.15;;;19.60;99.70;;;;;;4267205;27;20050;-59
2023/10/02 07:56:47;;;;;;;43.03;21.08;;;19.70;99.60;;;;;;4267188;27;20058;-60
2023/10/02 07:58:55;;;;;;;39.67;19.38;;;19.80;99.50;;;;;;4267171;27;20053;-60
2023/10/02 08:01:06;;;;;;;42.50;19.45;;;19.90;99.40;;;;;;4267706;27;20047;-60
2023/10/02 08:03:31;;;;;;;43.67;19.88;;;19.90;99.30;;;;;;4268162;27;20050;-62
2023/10/02 08:05:33;;;;;;;43.70;19.95;;;20.00;99.10;;;;;;4267758;27;20053;-59
2023/10/02 08:07:35;;;;;;;50.95;22.17;;;20.00;98.90;;;;;;4267566;27;20522;-60
2023/10/02 08:09:48;;;;;;;44.22;20.92;;;20.00;98.60;;;;;;4267204;27;20121;-60
2023/10/02 08:11:56;;;;;;;42.38;20.40;;;20.10;98.70;;;;;;4267431;27;20441;-59
2023/10/02 08:14:15;;;;;;;45.45;21.27;;;20.20;98.60;;;;;;4266765;27;20042;-59
2023/10/02 08:16:22;;;;;;;46.03;22.23;;;20.10;98.10;;;;;;4248382;27;20134;-60
2023/10/02 08:18:29;;;;;;;52.42;21.90;;;20.10;98.30;;;;;;4266871;27;20077;-59
2023/10/02 08:20:36;;;;;;;51.28;21.88;;;20.20;98.40;;;;;;4266260;27;20117;-60
2023/10/02 08:22:48;;;;;;;45.90;21.13;;;20.20;98.40;;;;;;4266968;27;20481;-60
2023/10/02 08:24:50;;;;;;;51.22;21.70;;;20.20;98.30;;;;;;4266803;27;20056;-59
2023/10/02 08:26:57;;;;;;;54.33;21.75;;;20.10;97.90;;;;;;4267163;27;20043;-59
2023/10/02 08:29:08;;;;;;;40.97;20.00;;;20.20;98.00;;;;;;4266661;27;20147;-57
2023/10/02 08:31:13;;;;;;;45.13;20.67;;;20.20;98.00;;;;;;4266679;27;20059;-58
2023/10/02 08:33:20;;;;;;;46.08;21.88;;;20.20;98.00;;;;;;4266952;27;20058;-61
2023/10/02 08:35:27;;;;;;;47.33;21.17;;;20.20;97.80;;;;;;4266847;27;20043;-60
2023/10/02 08:37:30;;;;;;;45.00;21.13;;;20.20;97.70;;;;;;4266809;27;20395;-60
2023/10/02 08:39:33;;;;;;;41.67;20.77;;;20.30;97.60;;;;;;4266861;27;20125;-61
2023/10/02 08:41:43;;;;;;;42.58;20.63;;;20.40;97.40;;;;;;4266672;27;20204;-60
2023/10/02 08:43:47;;;;;;;60.42;21.60;;;20.50;97.40;;;;;;4266643;27;20129;-61
2023/10/02 08:45:51;;;;;;;47.90;21.55;;;20.50;97.30;;;;;;4265339;27;20066;-61
2023/10/02 08:47:54;;;;;;;45.10;20.80;;;20.60;97.30;;;;;;4266596;27;20042;-60
2023/10/02 08:50:05;;;;;;;43.15;22.15;;;20.60;97.30;;;;;;4266489;27;20050;-61
2023/10/02 08:52:11;;;;;;;39.83;21.33;;;20.70;96.70;;;;;;4266248;27;20078;-60
2023/10/02 08:54:15;;;;;;;44.28;21.42;;;20.70;97.00;;;;;;4266193;27;20095;-60
2023/10/02 08:56:23;;;;;;;41.67;21.33;;;20.70;96.80;;;;;;4266464;27;20039;-58
2023/10/02 08:58:27;;;;;;;49.22;21.63;;;20.80;96.80;;;;;;4266447;27;20042;-58
2023/10/02 09:00:30;;;;;;;40.25;21.90;;;20.80;96.60;;;;;;4266200;27;20480;-58
2023/10/02 09:02:40;;;;;;;44.13;22.00;;;20.80;96.40;;;;;;4266420;27;20065;-58
2023/10/02 09:05:09;;;;;;;43.22;22.15;;;20.80;96.60;;;;;;4266038;27;20544;-59
2023/10/02 09:07:25;;;;;;;41.22;21.23;;;20.90;96.40;;;;;;4266097;27;20043;-60
2023/10/02 09:11:37;;;;;;;49.42;23.50;;;21.00;96.60;;;;;;4268110;27;20038;-61
2023/10/02 09:13:40;;;;;;;50.10;21.52;;;21.00;96.00;;;;;;4266010;27;20050;-60
2023/10/02 09:15:45;;;;;;;40.63;21.17;;;21.10;96.40;;;;;;4266158;27;20072;-60
2023/10/02 09:17:57;;;;;;;46.35;21.30;;;21.10;96.20;;;;;;4262314;27;20433;-59
2023/10/02 09:20:07;;;;;;;48.53;20.73;;;21.10;96.20;;;;;;4266099;27;20072;-59
2023/10/02 09:22:14;;;;;;;54.92;22.45;;;21.20;96.20;;;;;;4266191;27;20072;-59
2023/10/02 09:24:23;;;;;;;47.10;22.58;;;21.30;96.20;;;;;;4266011;27;20511;-60
2023/10/02 09:26:25;;;;;;;52.03;23.58;;;21.40;96.10;;;;;;4266242;27;20047;-65
2023/10/02 09:28:40;;;;;;;49.90;23.63;;;21.40;96.10;;;;;;4267602;27;20042;-61
2023/10/02 09:30:42;;;;;;;45.47;22.70;;;21.40;95.50;;;;;;4267253;27;20476;-62
2023/10/02 09:32:49;;;;;;;42.58;21.80;;;21.50;95.70;;;;;;4248365;27;20055;-60
2023/10/02 09:35:21;;;;;;;45.03;22.58;;;21.50;95.50;;;;;;4266769;27;20103;-58
2023/10/02 09:37:45;;;;;;;49.80;24.02;;;21.60;95.70;;;;;;4265822;27;20043;-58
2023/10/02 09:39:53;;;;;;;50.42;22.35;;;21.60;95.80;;;;;;4265653;27;20051;-57
2023/10/02 09:42:05;;;;;;;42.13;22.23;;;21.70;95.70;;;;;;4265886;27;20046;-59
2023/10/02 09:44:16;;;;;;;42.47;21.77;;;21.80;95.60;;;;;;4265617;27;20039;-61
2023/10/02 09:46:23;;;;;;;45.95;21.77;;;21.80;95.70;;;;;;4265744;27;20043;-60
2023/10/02 09:51:06;;;;;;;42.58;21.42;;;21.90;95.40;;;;;;4265443;27;20060;-60
2023/10/02 09:53:16;;;;;;;50.00;21.83;;;22.00;95.30;;;;;;4265464;27;20050;-60
2023/10/02 09:55:47;;;;;;;44.45;20.65;;;22.00;95.20;;;;;;4265318;27;20043;-60
2023/10/02 09:57:55;;;;;;;46.45;21.35;;;22.10;95.20;;;;;;4265187;27;20428;-57
2023/10/02 09:59:58;;;;;;;45.72;22.65;;;22.10;95.20;;;;;;4265232;27;20050;-57
2023/10/02 10:03:06;;;;;;;46.90;22.63;;;22.20;95.00;;;;;;4265132;27;20050;-58
2023/10/02 10:05:39;;;;;;;45.45;22.65;;;22.20;94.70;;;;;;4244405;27;20058;-58
2023/10/02 10:10:45;;;;;;;46.45;21.80;;;22.30;94.60;;;;;;4265260;27;20047;-59
2023/10/02 10:12:51;;;;;;;48.35;21.58;;;22.30;94.70;;;;;;4264774;27;20113;-59
2023/10/02 10:15:23;;;;;;;46.72;22.63;;;22.40;94.80;;;;;;4265171;27;20115;-58
2023/10/02 10:17:57;;;;;;;38.85;22.02;;;22.50;94.60;;;;;;4264964;27;20039;-62
2023/10/02 10:20:26;;;;;;;50.33;22.75;;;22.60;94.60;;;;;;4250825;27;20134;-58
2023/10/02 10:22:36;;;;;;;47.13;21.73;;;22.60;94.60;;;;;;4265369;27;20141;-57
2023/10/02 10:24:55;;;;;;;42.05;20.52;;;22.60;94.50;;;;;;4265117;27;20043;-58
2023/10/02 10:26:57;;;;;;;44.67;22.52;;;22.70;94.60;;;;;;4264866;27;20070;-60
2023/10/02 10:29:19;;;;;;;47.60;22.50;;;22.80;94.30;;;;;;4264867;27;20081;-57
2023/10/02 10:31:33;;;;;;;49.08;23.10;;;22.80;94.40;;;;;;4264737;27;20121;-58
2023/10/02 10:33:40;;;;;;;41.42;21.10;;;22.80;94.20;;;;;;4265111;27;20054;-57
2023/10/02 10:35:49;;;;;;;43.35;22.13;;;22.90;94.40;;;;;;4265275;27;20060;-58
2023/10/02 10:37:56;;;;;;;46.85;21.42;;;22.90;94.40;;;;;;4265140;27;20046;-57
2023/10/02 10:40:01;;;;;;;42.50;21.58;;;23.00;94.20;;;;;;4264723;27;20456;-59
2023/10/02 10:42:03;;;;;;;43.60;22.02;;;23.00;94.10;;;;;;4264647;27;20054;-59
2023/10/02 10:44:15;;;;;;;47.25;23.08;;;23.00;94.20;;;;;;4264900;27;20407;-57
2023/10/02 10:46:24;;;;;;;51.45;22.88;;;23.10;93.90;;;;;;4264668;27;20420;-58
2023/10/02 10:48:27;;;;;;;42.20;21.83;;;23.10;93.80;;;;;;4264659;27;20156;-58
2023/10/02 10:50:30;;;;;;;49.38;22.60;;;23.20;93.80;;;;;;4246495;27;20043;-58
2023/10/02 10:52:35;;;;;;;45.83;22.15;;;23.20;93.60;;;;;;4248785;27;20053;-58
2023/10/02 10:54:41;;;;;;;41.95;21.70;;;23.30;93.50;;;;;;4248256;27;20386;-58
2023/10/02 10:57:19;;;;;;;44.03;22.88;;;23.30;93.60;;;;;;4247659;27;20047;-58
2023/10/02 10:59:24;;;;;;;45.05;22.77;;;23.40;93.60;;;;;;4248047;27;20050;-60
2023/10/02 11:01:27;;;;;;;43.10;22.45;;;23.40;93.30;;;;;;4247936;27;20039;-57
2023/10/02 11:03:32;;;;;;;42.28;22.20;;;23.50;93.50;;;;;;4248035;27;20043;-58
2023/10/02 11:05:36;;;;;;;44.75;21.88;;;23.60;93.40;;;;;;4247802;27;20048;-57
2023/10/02 11:07:46;;;;;;;43.95;22.77;;;23.60;93.50;;;;;;4247552;27;20039;-58
2023/10/02 11:12:54;;;;;;;40.22;21.77;;;23.70;93.10;;;;;;4180240;28;20049;-59
2023/10/02 11:14:56;;;;;;;47.58;24.00;;;23.70;92.80;;;;;;4178814;28;20045;-59